Time;durP1;ratioP1;P1;durP2;ratioP2;P2;SDS_P1;SDS_P2;PMS_P1;PMS_P2;Temp;Humidity;BMP_temperature;BMP_pressure;BME280_temperature;BME280_humidity;BME280_pressure;Samples;Min_cycle;Max_cycle;Signal;HPM_P1;HPM_P2
2020/12/11 00:01:32;;;;;;;20.90;12.05;;;19.30;42.00;;;;;;6266505;28;20048;-66
2020/12/11 00:04:33;;;;;;;23.38;11.95;;;19.30;42.00;;;;;;6244731;28;20030;-67
2020/12/11 00:07:37;;;;;;;19.35;11.63;;;19.30;42.00;;;;;;6245247;28;20116;-65
2020/12/11 00:10:38;;;;;;;17.85;11.77;;;19.30;42.00;;;;;;6243185;28;20053;-66
2020/12/11 00:13:38;;;;;;;19.60;11.60;;;19.30;42.70;;;;;;6245401;28;20033;-65
2020/12/11 00:16:39;;;;;;;17.92;11.20;;;19.30;42.00;;;;;;6244801;28;20038;-69
2020/12/11 00:19:39;;;;;;;18.92;10.93;;;19.30;42.10;;;;;;6244564;28;20034;-66
2020/12/11 00:22:40;;;;;;;18.55;10.77;;;19.30;42.70;;;;;;6244762;28;20044;-66
2020/12/11 00:25:41;;;;;;;16.77;10.88;;;19.30;42.10;;;;;;6244350;28;20022;-65
2020/12/11 00:28:41;;;;;;;20.52;11.95;;;19.30;42.10;;;;;;6244908;28;20064;-68
2020/12/11 00:31:42;;;;;;;16.30;10.68;;;19.30;42.20;;;;;;6244018;28;20034;-66
2020/12/11 00:34:42;;;;;;;17.33;10.45;;;19.30;42.10;;;;;;6244327;28;20047;-66
2020/12/11 00:37:43;;;;;;;17.13;10.38;;;19.30;42.20;;;;;;6244295;28;20080;-66
2020/12/11 00:40:43;;;;;;;16.20;9.82;;;19.30;42.20;;;;;;6244582;28;20075;-67
2020/12/11 00:43:44;;;;;;;17.45;10.10;;;19.30;42.20;;;;;;6244174;28;20025;-66
2020/12/11 00:46:45;;;;;;;15.48;9.95;;;19.30;42.30;;;;;;6244030;28;20108;-67
2020/12/11 00:49:46;;;;;;;15.20;10.05;;;19.30;42.30;;;;;;6244304;28;20428;-67
2020/12/11 00:52:46;;;;;;;16.20;10.50;;;19.30;42.30;;;;;;6243336;28;20040;-67
2020/12/11 00:55:47;;;;;;;16.52;10.48;;;19.30;42.30;;;;;;6243728;28;20033;-67
2020/12/11 00:58:47;;;;;;;17.67;10.05;;;19.30;42.40;;;;;;6242417;28;20059;-67
2020/12/11 01:01:48;;;;;;;14.57;9.60;;;19.30;42.30;;;;;;6243678;28;20048;-66
2020/12/11 01:04:48;;;;;;;15.63;9.80;;;19.30;42.40;;;;;;6243482;28;20021;-66
2020/12/11 01:07:48;;;;;;;15.93;9.48;;;19.30;42.40;;;;;;6243520;28;20055;-66
2020/12/11 01:10:49;;;;;;;17.23;10.38;;;19.20;42.30;;;;;;6242915;28;20034;-67
2020/12/11 01:13:49;;;;;;;14.77;9.43;;;19.20;42.30;;;;;;6243727;28;20434;-66
2020/12/11 01:16:50;;;;;;;15.20;9.65;;;19.20;42.40;;;;;;6243631;28;20445;-67
2020/12/11 01:19:50;;;;;;;14.07;9.50;;;19.20;42.40;;;;;;6243180;28;20021;-67
2020/12/11 01:22:51;;;;;;;16.30;9.60;;;19.20;42.40;;;;;;6242865;28;20111;-67
2020/12/11 01:25:51;;;;;;;14.30;9.52;;;19.20;42.40;;;;;;6243015;28;20372;-67
2020/12/11 01:28:52;;;;;;;16.15;9.27;;;19.20;42.40;;;;;;6242870;28;20388;-67
2020/12/11 01:31:56;;;;;;;13.95;8.55;;;19.20;42.40;;;;;;6242655;28;20416;-67
2020/12/11 01:34:57;;;;;;;15.05;8.90;;;19.20;42.40;;;;;;6242909;28;20041;-67
2020/12/11 01:37:57;;;;;;;14.68;9.05;;;19.20;42.50;;;;;;6242633;28;20112;-66
2020/12/11 01:40:59;;;;;;;12.85;8.65;;;19.20;42.50;;;;;;6242916;28;20029;-66
2020/12/11 01:44:08;;;;;;;12.25;7.78;;;19.20;42.40;;;;;;6241545;28;20026;-67
2020/12/11 01:47:08;;;;;;;13.88;8.77;;;19.20;42.50;;;;;;6243188;28;20022;-66
2020/12/11 01:50:18;;;;;;;12.93;8.65;;;19.20;42.50;;;;;;6242227;28;20049;-67
2020/12/11 01:53:21;;;;;;;12.25;7.60;;;19.20;42.50;;;;;;6242795;28;20118;-66
2020/12/11 01:56:25;;;;;;;13.57;8.75;;;19.20;42.50;;;;;;6243474;28;20109;-66
2020/12/11 01:59:39;;;;;;;18.88;8.18;;;19.20;42.50;;;;;;6242335;28;20033;-67
2020/12/11 02:02:45;;;;;;;12.73;8.43;;;19.20;42.60;;;;;;6242438;28;20021;-67
2020/12/11 02:05:46;;;;;;;13.85;8.70;;;19.20;42.60;;;;;;6241672;28;20032;-67
2020/12/11 02:08:47;;;;;;;11.40;7.43;;;19.20;42.60;;;;;;6242543;28;20025;-67
2020/12/11 02:11:53;;;;;;;13.48;8.30;;;19.20;42.60;;;;;;6242060;28;20546;-66
2020/12/11 02:14:54;;;;;;;13.35;8.52;;;19.20;42.60;;;;;;6242553;28;20025;-67
2020/12/11 02:17:55;;;;;;;13.38;8.15;;;19.20;42.60;;;;;;6242153;28;20037;-66
2020/12/11 02:20:56;;;;;;;12.32;7.50;;;19.20;42.60;;;;;;6241674;28;20447;-67
2020/12/11 02:23:56;;;;;;;13.30;8.05;;;19.20;42.60;;;;;;6241667;28;20069;-69
2020/12/11 02:26:58;;;;;;;12.85;8.38;;;19.20;42.70;;;;;;6242177;28;20053;-67
2020/12/11 02:29:59;;;;;;;11.43;7.63;;;19.10;42.60;;;;;;6241507;28;20140;-68
2020/12/11 02:32:59;;;;;;;10.82;7.30;;;19.20;42.70;;;;;;6243865;28;20030;-67
2020/12/11 02:35:59;;;;;;;13.80;7.95;;;19.10;42.60;;;;;;6247212;28;20550;-67
2020/12/11 02:39:00;;;;;;;11.38;7.53;;;19.10;42.60;;;;;;6247753;28;20506;-67
2020/12/11 02:42:00;;;;;;;13.00;7.55;;;19.10;42.60;;;;;;6258758;28;20056;-67
2020/12/11 02:45:02;;;;;;;13.63;7.38;;;19.10;42.70;;;;;;6258858;28;20024;-68
2020/12/11 02:48:02;;;;;;;11.85;7.40;;;19.10;42.70;;;;;;6247616;28;20021;-67
2020/12/11 02:51:03;;;;;;;14.10;8.18;;;19.10;42.70;;;;;;6245982;28;20057;-66
2020/12/11 02:54:03;;;;;;;11.00;7.35;;;19.10;42.70;;;;;;6246989;28;20411;-68
2020/12/11 02:57:04;;;;;;;10.93;7.10;;;19.10;42.70;;;;;;6246429;28;20113;-68
2020/12/11 03:00:04;;;;;;;11.80;7.22;;;19.10;42.70;;;;;;6246724;28;20049;-67
2020/12/11 03:03:05;;;;;;;11.05;7.35;;;19.10;42.70;;;;;;6246464;28;20109;-67
2020/12/11 03:06:05;;;;;;;12.30;7.10;;;19.10;42.70;;;;;;6246764;28;20061;-67
2020/12/11 03:09:06;;;;;;;9.82;6.60;;;19.10;42.80;;;;;;6246061;28;20087;-68
2020/12/11 03:12:06;;;;;;;13.10;7.22;;;19.10;43.40;;;;;;6245489;28;20034;-67
2020/12/11 03:15:07;;;;;;;11.77;7.20;;;19.10;42.80;;;;;;6246367;28;20032;-66
2020/12/11 03:18:07;;;;;;;11.15;7.00;;;19.10;42.80;;;;;;6246217;28;20094;-67
2020/12/11 03:21:08;;;;;;;10.10;6.72;;;19.10;42.80;;;;;;6245957;28;20426;-67
2020/12/11 03:24:08;;;;;;;12.25;7.55;;;19.10;42.90;;;;;;6245510;28;20033;-68
2020/12/11 03:27:10;;;;;;;10.30;6.35;;;19.10;42.80;;;;;;6246031;28;20523;-67
2020/12/11 03:30:11;;;;;;;10.65;6.47;;;19.10;42.90;;;;;;6246064;28;20495;-68
2020/12/11 03:33:11;;;;;;;9.25;6.20;;;19.10;42.90;;;;;;6247579;28;20039;-67
2020/12/11 03:36:18;;;;;;;10.32;6.60;;;19.10;42.90;;;;;;6254363;28;20029;-67
2020/12/11 03:39:18;;;;;;;11.88;6.80;;;19.10;42.90;;;;;;6245869;28;20032;-66
2020/12/11 03:42:19;;;;;;;10.95;6.88;;;19.10;42.90;;;;;;6245629;28;20033;-68
2020/12/11 03:45:19;;;;;;;9.43;6.45;;;19.10;42.90;;;;;;6245041;28;20025;-66
2020/12/11 03:48:19;;;;;;;10.25;6.38;;;19.10;42.90;;;;;;6245959;28;20095;-67
2020/12/11 03:51:24;;;;;;;9.35;6.30;;;19.10;42.90;;;;;;6244780;28;20029;-67
2020/12/11 03:54:24;;;;;;;9.88;6.22;;;19.10;42.90;;;;;;6245458;28;20568;-67
2020/12/11 03:57:25;;;;;;;9.38;6.47;;;19.10;43.00;;;;;;6245256;28;20033;-66
2020/12/11 04:00:25;;;;;;;9.57;6.22;;;19.10;43.00;;;;;;6243419;28;20240;-68
2020/12/11 04:03:25;;;;;;;9.75;6.07;;;19.10;43.00;;;;;;6245800;28;20037;-68
2020/12/11 04:06:26;;;;;;;9.85;6.28;;;19.10;43.00;;;;;;6244618;28;20384;-67
2020/12/11 04:09:26;;;;;;;9.50;6.10;;;19.10;43.00;;;;;;6245347;28;20395;-67
2020/12/11 04:12:27;;;;;;;9.43;6.30;;;19.10;43.70;;;;;;6244615;28;20613;-67
2020/12/11 04:15:27;;;;;;;9.23;6.13;;;19.10;43.00;;;;;;6245237;28;20393;-67
2020/12/11 04:18:28;;;;;;;9.98;6.07;;;19.10;43.00;;;;;;6244864;28;20029;-69
2020/12/11 04:21:28;;;;;;;7.70;5.35;;;19.10;43.10;;;;;;6244502;28;20088;-67
2020/12/11 04:24:29;;;;;;;9.88;5.90;;;19.10;43.10;;;;;;6245055;28;20033;-68
2020/12/11 04:27:29;;;;;;;10.48;6.30;;;19.10;43.10;;;;;;6244869;28;20084;-67
2020/12/11 04:30:30;;;;;;;8.73;6.03;;;19.10;43.10;;;;;;6244696;28;20094;-67
2020/12/11 04:33:30;;;;;;;9.45;5.75;;;19.10;43.10;;;;;;6244134;28;20056;-67
2020/12/11 04:36:31;;;;;;;8.25;5.70;;;19.10;43.10;;;;;;6244386;28;20037;-67
2020/12/11 04:39:31;;;;;;;8.88;5.65;;;19.10;43.10;;;;;;6243970;28;20071;-67
2020/12/11 04:42:35;;;;;;;10.90;6.35;;;19.10;43.20;;;;;;6244437;28;20502;-67
2020/12/11 04:45:37;;;;;;;8.68;5.60;;;19.10;43.10;;;;;;6246767;28;20018;-66
2020/12/11 04:48:39;;;;;;;10.15;5.95;;;19.10;43.10;;;;;;6245170;28;20077;-67
2020/12/11 04:51:50;;;;;;;9.63;6.05;;;19.10;43.10;;;;;;6244979;28;20048;-67
2020/12/11 04:54:57;;;;;;;8.55;5.50;;;19.00;43.10;;;;;;6244907;28;20033;-67
2020/12/11 04:58:03;;;;;;;11.10;5.93;;;19.00;43.10;;;;;;6244421;28;20029;-66
2020/12/11 05:01:05;;;;;;;10.02;5.53;;;19.00;43.10;;;;;;6244287;28;20032;-68
2020/12/11 05:04:06;;;;;;;8.85;5.43;;;19.00;43.20;;;;;;6243841;28;20113;-67
2020/12/11 05:07:06;;;;;;;8.65;5.65;;;19.00;43.10;;;;;;6243818;28;20029;-67
2020/12/11 05:10:08;;;;;;;10.63;6.22;;;19.10;43.20;;;;;;6243455;28;20075;-66
2020/12/11 05:13:25;;;;;;;9.63;6.25;;;19.10;43.10;;;;;;6242939;28;20091;-66
2020/12/11 05:16:26;;;;;;;7.22;4.88;;;19.10;43.10;;;;;;6243552;28;20429;-67
2020/12/11 05:19:30;;;;;;;8.55;5.07;;;19.20;43.10;;;;;;6242853;28;20036;-67
2020/12/11 05:22:33;;;;;;;9.93;5.85;;;19.20;43.30;;;;;;6243584;28;20033;-66
2020/12/11 05:25:34;;;;;;;8.85;5.25;;;19.20;43.20;;;;;;6243192;28;20040;-67
2020/12/11 05:28:44;;;;;;;8.55;5.40;;;19.20;43.20;;;;;;6243000;28;20029;-66
2020/12/11 05:31:45;;;;;;;8.68;5.47;;;19.20;43.30;;;;;;6242905;28;20014;-66
2020/12/11 05:34:46;;;;;;;7.25;4.97;;;19.20;43.40;;;;;;6243180;28;20057;-64
2020/12/11 05:37:50;;;;;;;10.13;5.75;;;19.20;43.30;;;;;;6236802;28;20042;-68
2020/12/11 05:40:50;;;;;;;12.65;6.55;;;19.20;43.00;;;;;;6254491;28;20033;-67
2020/12/11 05:43:55;;;;;;;14.30;6.47;;;19.20;42.90;;;;;;6240907;28;20369;-68
2020/12/11 05:46:57;;;;;;;12.10;6.55;;;19.30;43.40;;;;;;6240135;28;20024;-67
2020/12/11 05:50:08;;;;;;;11.15;6.18;;;19.40;42.70;;;;;;6242489;28;20021;-69
2020/12/11 05:53:09;;;;;;;13.93;5.55;;;19.50;42.70;;;;;;6244728;28;20017;-68
2020/12/11 05:56:10;;;;;;;8.60;5.75;;;19.60;43.40;;;;;;6251666;28;20036;-67
2020/12/11 05:59:12;;;;;;;11.07;5.10;;;19.60;42.50;;;;;;6244890;28;20033;-66
2020/12/11 06:02:17;;;;;;;11.68;5.53;;;19.60;42.50;;;;;;6240717;28;20484;-67
2020/12/11 06:05:19;;;;;;;9.27;5.40;;;19.70;42.70;;;;;;6242118;28;20065;-67
2020/12/11 06:08:20;;;;;;;8.45;5.30;;;19.70;42.70;;;;;;6241041;28;20045;-66
2020/12/11 06:11:22;;;;;;;9.60;5.35;;;19.70;42.70;;;;;;6244726;28;20033;-67
2020/12/11 06:14:45;;;;;;;9.23;5.82;;;19.70;42.70;;;;;;6260859;28;20040;-68
2020/12/11 06:18:02;;;;;;;9.50;5.07;;;19.80;42.70;;;;;;6262427;28;20510;-68
2020/12/11 06:21:04;;;;;;;7.65;5.05;;;19.80;42.60;;;;;;6252641;28;20021;-68
2020/12/11 06:24:31;;;;;;;10.10;5.57;;;19.90;42.70;;;;;;6254672;28;20060;-66
2020/12/11 06:27:32;;;;;;;9.98;5.18;;;19.90;42.80;;;;;;6266488;28;20162;-68
2020/12/11 06:30:33;;;;;;;8.63;5.22;;;19.90;42.70;;;;;;6262782;28;20025;-68
2020/12/11 06:33:35;;;;;;;10.15;5.53;;;19.90;42.70;;;;;;6241734;28;20057;-66
2020/12/11 06:36:43;;;;;;;9.90;5.15;;;19.90;42.80;;;;;;6241396;28;20079;-67
2020/12/11 06:39:45;;;;;;;9.30;5.25;;;19.90;42.70;;;;;;6241599;28;20060;-68
2020/12/11 06:42:46;;;;;;;9.00;5.20;;;19.90;42.70;;;;;;6240210;28;20107;-69
2020/12/11 06:46:07;;;;;;;7.60;4.85;;;20.00;42.80;;;;;;6241692;28;20021;-70
2020/12/11 06:49:19;;;;;;;7.90;4.47;;;20.00;42.70;;;;;;6240301;28;20014;-67
2020/12/11 06:52:19;;;;;;;9.05;4.97;;;20.00;42.80;;;;;;6237849;28;20536;-66
2020/12/11 06:55:20;;;;;;;9.02;4.50;;;20.00;42.90;;;;;;6240712;28;20029;-67
2020/12/11 06:58:21;;;;;;;9.25;5.50;;;20.00;42.80;;;;;;6233253;28;20029;-67
2020/12/11 07:01:22;;;;;;;8.35;5.10;;;20.10;42.80;;;;;;6240359;28;20395;-67
2020/12/11 07:04:23;;;;;;;93.40;15.27;;;20.10;42.80;;;;;;6239920;28;20034;-65
2020/12/11 07:07:29;;;;;;;26.02;7.00;;;20.10;42.90;;;;;;6241318;28;20491;-66
2020/12/11 07:10:30;;;;;;;45.35;10.18;;;20.10;43.00;;;;;;6246190;28;20057;-66
2020/12/11 07:13:30;;;;;;;67.07;12.18;;;20.10;43.00;;;;;;6242374;28;20034;-66
2020/12/11 07:16:38;;;;;;;60.40;12.15;;;20.10;42.90;;;;;;6277268;28;20081;-67
2020/12/11 07:19:38;;;;;;;57.00;12.10;;;20.10;42.90;;;;;;6283372;28;20082;-68
2020/12/11 07:22:39;;;;;;;51.15;10.82;;;20.10;42.90;;;;;;6270607;28;20030;-67
2020/12/11 07:25:40;;;;;;;46.55;11.30;;;20.10;42.80;;;;;;6246703;28;20033;-66
2020/12/11 07:28:40;;;;;;;42.90;10.55;;;20.10;42.80;;;;;;6248647;28;20030;-66
2020/12/11 07:31:45;;;;;;;38.33;9.90;;;20.10;42.90;;;;;;6244094;28;20025;-67
2020/12/11 07:34:46;;;;;;;35.90;9.80;;;20.10;42.90;;;;;;6242502;28;20029;-69
2020/12/11 07:37:53;;;;;;;66.38;13.02;;;20.10;42.80;;;;;;6245514;28;20095;-67
2020/12/11 07:40:59;;;;;;;41.50;9.45;;;20.20;43.20;;;;;;6254712;28;20056;-68
2020/12/11 07:44:00;;;;;;;52.28;9.70;;;20.20;42.80;;;;;;6244473;28;20025;-67
2020/12/11 07:47:12;;;;;;;40.20;9.63;;;20.20;43.30;;;;;;6252783;28;20538;-65
2020/12/11 07:50:13;;;;;;;37.97;9.27;;;20.20;43.30;;;;;;6255640;28;20108;-66
2020/12/11 07:53:13;;;;;;;33.55;8.68;;;20.20;43.10;;;;;;6245297;28;20036;-67
2020/12/11 07:56:14;;;;;;;31.27;8.60;;;20.20;43.10;;;;;;6262949;28;20029;-65
2020/12/11 07:59:15;;;;;;;30.80;8.25;;;20.20;43.30;;;;;;6270252;28;20060;-68
2020/12/11 08:02:16;;;;;;;36.53;8.85;;;20.20;43.10;;;;;;6252781;28;20034;-67
2020/12/11 08:05:17;;;;;;;25.13;8.05;;;20.20;43.10;;;;;;6245857;28;20045;-67
2020/12/11 08:08:25;;;;;;;29.25;8.02;;;20.20;42.90;;;;;;6244093;28;20472;-68
2020/12/11 08:11:26;;;;;;;23.88;8.68;;;20.20;42.90;;;;;;6243828;28;20029;-67
2020/12/11 08:14:39;;;;;;;28.30;9.02;;;20.20;42.90;;;;;;6246063;28;20029;-68
2020/12/11 08:17:41;;;;;;;21.02;7.50;;;20.20;43.00;;;;;;6253267;28;20394;-68
2020/12/11 08:20:50;;;;;;;25.63;7.95;;;20.20;43.80;;;;;;6243692;28;20044;-67
2020/12/11 08:23:50;;;;;;;18.98;7.30;;;20.20;43.00;;;;;;6245577;28;20089;-67
2020/12/11 08:26:51;;;;;;;21.17;6.93;;;20.20;42.90;;;;;;6245171;28;20049;-67
2020/12/11 08:30:09;;;;;;;19.15;6.95;;;20.30;43.00;;;;;;6243879;28;20101;-68
2020/12/11 08:33:11;;;;;;;18.20;7.47;;;20.30;43.00;;;;;;6244375;28;20091;-68
2020/12/11 08:36:19;;;;;;;21.98;8.00;;;20.30;43.00;;;;;;6256550;28;20392;-67
2020/12/11 08:39:24;;;;;;;19.50;7.72;;;20.20;43.10;;;;;;6246607;28;20116;-68
2020/12/11 08:42:28;;;;;;;23.17;7.30;;;20.30;43.10;;;;;;6244422;28;20401;-67
2020/12/11 08:46:01;;;;;;;21.02;6.70;;;20.20;42.90;;;;;;6248694;28;20053;-67
2020/12/11 08:52:01;;;;;;;20.05;7.07;;;20.30;43.10;;;;;;6244162;28;20388;-70
2020/12/11 08:55:01;;;;;;;19.38;7.22;;;20.30;43.30;;;;;;6243584;28;20025;-69
2020/12/11 08:58:02;;;;;;;18.92;7.25;;;20.20;43.10;;;;;;6245377;28;20120;-68
2020/12/11 09:01:04;;;;;;;25.10;7.13;;;20.30;43.50;;;;;;6248897;28;20056;-67
2020/12/11 09:04:05;;;;;;;23.73;7.45;;;20.30;43.10;;;;;;6269611;28;20021;-67
2020/12/11 09:07:05;;;;;;;18.52;6.78;;;20.50;42.80;;;;;;6246119;28;20021;-66
2020/12/11 09:10:06;;;;;;;12.50;6.20;;;20.60;42.60;;;;;;6243785;28;20086;-66
2020/12/11 09:13:07;;;;;;;14.05;6.53;;;20.70;42.40;;;;;;6244599;28;20135;-66
2020/12/11 09:16:08;;;;;;;16.88;7.28;;;20.80;42.30;;;;;;6244375;28;20034;-66
2020/12/11 09:19:09;;;;;;;15.65;6.38;;;20.90;42.40;;;;;;6219339;28;20080;-67
2020/12/11 09:22:09;;;;;;;19.50;6.88;;;20.90;42.60;;;;;;6218308;28;20017;-67
2020/12/11 09:25:10;;;;;;;20.05;6.85;;;20.80;42.40;;;;;;6219677;28;20041;-66
2020/12/11 09:28:17;;;;;;;14.75;6.60;;;20.80;42.30;;;;;;6218842;28;20026;-66
2020/12/11 09:31:22;;;;;;;14.27;6.65;;;20.80;42.30;;;;;;6219837;28;20387;-67
2020/12/11 09:34:23;;;;;;;14.00;7.10;;;20.80;42.40;;;;;;6218956;28;20030;-67
2020/12/11 09:37:24;;;;;;;14.27;6.70;;;20.80;42.50;;;;;;6219126;28;20061;-67
2020/12/11 09:40:36;;;;;;;13.32;6.68;;;20.80;42.50;;;;;;6219550;28;20026;-65
2020/12/11 09:47:26;;;;;;;15.18;6.35;;;20.80;42.60;;;;;;6219647;28;20026;-66
2020/12/11 09:50:33;;;;;;;18.35;6.82;;;20.80;42.60;;;;;;6219971;28;20033;-66
2020/12/11 09:56:55;;;;;;;13.55;6.57;;;20.80;42.70;;;;;;6220649;28;20481;-65
2020/12/11 09:59:58;;;;;;;14.70;6.28;;;20.80;42.70;;;;;;6219299;28;20060;-68
2020/12/11 10:03:03;;;;;;;13.35;6.75;;;20.90;42.80;;;;;;6219214;28;20026;-66
2020/12/11 10:06:08;;;;;;;12.75;6.43;;;20.90;42.80;;;;;;6220439;28;20393;-64
2020/12/11 10:09:08;;;;;;;12.32;6.18;;;20.90;42.80;;;;;;6224561;28;20029;-67
2020/12/11 10:12:10;;;;;;;11.63;5.50;;;20.90;42.60;;;;;;6267716;28;20055;-66
2020/12/11 10:15:11;;;;;;;13.15;6.10;;;20.90;42.80;;;;;;6267950;28;20098;-67
2020/12/11 10:18:11;;;;;;;12.60;6.53;;;20.90;42.70;;;;;;6267652;28;20475;-66
2020/12/11 10:21:12;;;;;;;13.68;6.50;;;20.90;42.70;;;;;;6267529;28;20025;-66
2020/12/11 10:24:13;;;;;;;13.65;5.97;;;20.90;42.80;;;;;;6267175;28;20086;-66
2020/12/11 10:27:14;;;;;;;9.55;5.43;;;21.00;42.80;;;;;;6267494;28;20416;-66
2020/12/11 10:30:14;;;;;;;11.38;5.95;;;21.00;42.90;;;;;;6266646;28;20082;-66
2020/12/11 10:33:15;;;;;;;15.02;6.00;;;21.00;42.90;;;;;;6267443;28;20037;-67
2020/12/11 10:36:15;;;;;;;11.45;6.15;;;21.00;42.80;;;;;;6267633;28;20033;-66
2020/12/11 10:39:16;;;;;;;11.63;6.72;;;21.00;42.80;;;;;;6267658;28;20032;-66
2020/12/11 10:42:16;;;;;;;10.52;5.93;;;21.00;42.90;;;;;;6267195;28;20096;-67
2020/12/11 10:45:16;;;;;;;9.25;5.15;;;21.00;42.90;;;;;;6266901;28;20080;-67
2020/12/11 10:48:17;;;;;;;10.45;5.85;;;21.00;42.90;;;;;;6267945;28;20075;-66
2020/12/11 10:51:18;;;;;;;10.63;6.00;;;21.00;42.80;;;;;;6266813;28;20036;-67
2020/12/11 10:54:19;;;;;;;10.27;5.53;;;21.00;42.70;;;;;;6269996;28;20303;-66
2020/12/11 10:57:19;;;;;;;11.95;6.63;;;21.00;42.80;;;;;;6272334;28;20017;-66
2020/12/11 11:00:20;;;;;;;8.65;5.38;;;21.00;43.50;;;;;;6272492;28;20033;-67
2020/12/11 11:03:21;;;;;;;9.57;5.85;;;21.00;42.80;;;;;;6271520;28;20037;-66
2020/12/11 11:06:25;;;;;;;11.38;5.57;;;21.00;42.80;;;;;;6271900;28;20475;-67
2020/12/11 11:09:32;;;;;;;11.05;5.53;;;21.00;42.80;;;;;;6271986;28;20020;-65
2020/12/11 11:12:37;;;;;;;9.93;5.68;;;21.00;42.80;;;;;;6270136;28;20029;-66
2020/12/11 11:15:52;;;;;;;11.95;5.97;;;21.00;42.80;;;;;;6272037;28;20176;-66
2020/12/11 11:18:57;;;;;;;12.52;6.05;;;21.00;42.90;;;;;;6271811;28;20027;-65
2020/12/11 11:28:33;;;;;;;10.32;5.63;;;21.00;42.70;;;;;;6271045;28;19940;-65
2020/12/11 11:31:34;;;;;;;9.93;5.80;;;21.00;42.80;;;;;;6271837;28;20060;-65
2020/12/11 11:34:34;;;;;;;11.60;6.22;;;21.00;42.70;;;;;;6271365;28;20036;-66
2020/12/11 11:37:35;;;;;;;8.50;5.32;;;21.00;42.70;;;;;;6272128;28;20032;-67
2020/12/11 11:40:38;;;;;;;10.25;5.10;;;21.00;42.80;;;;;;6271666;28;20096;-66
2020/12/11 11:47:18;;;;;;;9.02;5.35;;;21.00;42.80;;;;;;6243298;28;20075;-66
2020/12/11 11:53:21;;;;;;;10.80;5.47;;;21.00;42.70;;;;;;6269413;28;20112;-67
2020/12/11 11:56:22;;;;;;;11.40;5.15;;;21.00;42.70;;;;;;6270724;28;20040;-65
2020/12/11 11:59:22;;;;;;;8.82;5.40;;;21.00;42.70;;;;;;6270695;28;20275;-65
2020/12/11 12:02:23;;;;;;;8.15;4.75;;;21.10;42.70;;;;;;6270411;28;20021;-66
2020/12/11 12:05:23;;;;;;;9.35;5.28;;;21.00;42.60;;;;;;6269162;28;20086;-66
2020/12/11 12:08:24;;;;;;;9.57;4.93;;;21.10;42.70;;;;;;6270099;28;20393;-67
2020/12/11 12:11:29;;;;;;;9.32;5.80;;;21.10;42.70;;;;;;6268756;28;20568;-66
2020/12/11 12:14:29;;;;;;;9.05;5.28;;;21.10;42.80;;;;;;6268915;28;20608;-67
2020/12/11 12:17:35;;;;;;;9.63;5.32;;;21.10;42.80;;;;;;6270069;28;20025;-67
2020/12/11 12:20:54;;;;;;;9.88;5.10;;;21.10;42.70;;;;;;6269682;28;20036;-66
2020/12/11 12:30:25;;;;;;;9.00;5.43;;;21.10;42.60;;;;;;6245521;28;20013;-65
2020/12/11 12:36:53;;;;;;;9.18;5.30;;;21.10;42.60;;;;;;6245629;28;20049;-65
2020/12/11 12:40:17;;;;;;;7.80;5.22;;;21.10;42.60;;;;;;6244635;28;20021;-65
2020/12/11 12:43:24;;;;;;;7.70;5.00;;;21.10;42.60;;;;;;6244807;28;20055;-66
2020/12/11 12:46:25;;;;;;;9.10;5.03;;;21.10;42.70;;;;;;6244930;28;20013;-65
2020/12/11 12:49:26;;;;;;;9.00;5.20;;;21.10;42.60;;;;;;6245182;28;20100;-65
2020/12/11 12:52:27;;;;;;;7.70;5.38;;;21.10;42.60;;;;;;6244053;28;20541;-65
2020/12/11 12:55:42;;;;;;;9.38;5.38;;;21.10;42.60;;;;;;6244879;28;20025;-65
2020/12/11 12:58:44;;;;;;;15.87;6.80;;;21.10;42.60;;;;;;6243963;28;20022;-71
2020/12/11 13:08:07;;;;;;;16.58;7.93;;;20.00;43.90;;;;;;6243657;28;20018;-70
2020/12/11 13:11:07;;;;;;;22.35;8.82;;;20.20;43.70;;;;;;6253380;28;20040;-68
2020/12/11 13:14:08;;;;;;;21.90;9.10;;;20.70;43.10;;;;;;6257842;28;20040;-71
2020/12/11 13:17:08;;;;;;;19.02;9.45;;;21.30;41.60;;;;;;6246284;28;20127;-69
2020/12/11 13:20:10;;;;;;;19.70;9.25;;;21.70;41.00;;;;;;6263497;28;20090;-71
2020/12/11 13:26:41;;;;;;;21.92;9.05;;;21.60;41.20;;;;;;6245174;28;20022;-69
2020/12/11 13:29:42;;;;;;;14.68;8.60;;;21.60;41.60;;;;;;6243858;28;20017;-66
2020/12/11 13:32:42;;;;;;;18.77;7.68;;;21.90;41.00;;;;;;6259724;28;20026;-68
2020/12/11 13:35:43;;;;;;;17.70;8.27;;;22.10;40.70;;;;;;6246342;28;20024;-66
2020/12/11 13:38:43;;;;;;;15.15;7.30;;;21.90;41.00;;;;;;6267723;28;20607;-68
2020/12/11 13:41:44;;;;;;;14.15;8.38;;;21.80;41.30;;;;;;6265472;28;20369;-67
2020/12/11 13:44:45;;;;;;;11.90;7.13;;;21.70;41.50;;;;;;6248509;28;20025;-65
2020/12/11 13:47:45;;;;;;;18.63;7.75;;;21.70;41.60;;;;;;6263672;28;20025;-68
2020/12/11 13:50:45;;;;;;;16.67;8.13;;;21.70;41.70;;;;;;6266009;28;20037;-66
2020/12/11 13:53:46;;;;;;;14.30;7.03;;;21.70;41.60;;;;;;6264028;28;20097;-67
2020/12/11 13:56:50;;;;;;;15.55;7.38;;;22.10;41.20;;;;;;6248070;28;20049;-68
2020/12/11 13:59:53;;;;;;;16.17;7.15;;;22.40;41.70;;;;;;6241078;28;20029;-67
2020/12/11 14:02:53;;;;;;;18.88;7.50;;;22.70;40.40;;;;;;6249546;28;20024;-68
2020/12/11 14:05:54;;;;;;;16.67;7.57;;;22.90;40.30;;;;;;6257556;28;20079;-67
2020/12/11 14:08:55;;;;;;;15.30;7.28;;;23.00;40.10;;;;;;6263154;28;20104;-67
2020/12/11 14:12:00;;;;;;;12.45;7.20;;;22.90;40.20;;;;;;6263369;28;20040;-67
2020/12/11 14:15:00;;;;;;;17.92;7.30;;;22.90;40.10;;;;;;6267759;28;20033;-67
2020/12/11 14:21:40;;;;;;;14.43;6.80;;;22.80;40.20;;;;;;6241925;28;20025;-66
2020/12/11 14:24:42;;;;;;;12.23;6.90;;;22.80;40.10;;;;;;6266806;28;20028;-69
2020/12/11 14:27:42;;;;;;;17.00;7.53;;;22.80;40.30;;;;;;6258631;28;20029;-67
2020/12/11 14:30:43;;;;;;;13.25;7.60;;;22.60;40.00;;;;;;6240384;28;20629;-70
2020/12/11 14:33:44;;;;;;;17.83;9.48;;;22.60;40.20;;;;;;6263164;28;20499;-66
2020/12/11 14:36:45;;;;;;;27.58;9.23;;;22.60;39.70;;;;;;6264110;28;20032;-66
2020/12/11 14:39:46;;;;;;;15.35;8.70;;;22.30;40.00;;;;;;6260327;28;20111;-66
2020/12/11 14:42:46;;;;;;;23.88;9.73;;;22.00;40.20;;;;;;6240595;28;20492;-67
2020/12/11 14:45:48;;;;;;;25.17;9.75;;;21.80;40.80;;;;;;6242029;28;20739;-69
2020/12/11 14:48:50;;;;;;;18.27;9.25;;;21.80;41.20;;;;;;6259232;28;20048;-66
2020/12/11 14:51:52;;;;;;;25.08;10.93;;;21.80;41.60;;;;;;6258474;28;20091;-63
2020/12/11 14:54:54;;;;;;;22.70;9.95;;;21.80;41.50;;;;;;6238490;28;20032;-65
2020/12/11 14:57:54;;;;;;;18.42;8.77;;;21.80;41.20;;;;;;6243151;28;20024;-66
2020/12/11 15:00:55;;;;;;;35.70;19.50;;;21.80;41.30;;;;;;6240376;28;20029;-68
2020/12/11 15:03:57;;;;;;;57.00;27.75;;;21.50;38.00;;;;;;6246445;28;20076;-66
2020/12/11 15:06:57;;;;;;;62.90;27.67;;;21.30;33.20;;;;;;6266419;28;20053;-69
2020/12/11 15:09:58;;;;;;;68.72;30.08;;;21.10;32.40;;;;;;6266285;28;20047;-66
2020/12/11 15:12:58;;;;;;;50.47;25.33;;;20.90;32.50;;;;;;6264981;28;20509;-62
2020/12/11 15:15:59;;;;;;;50.58;22.52;;;20.90;35.10;;;;;;6245977;28;20014;-70
2020/12/11 15:18:59;;;;;;;46.97;22.33;;;21.20;37.20;;;;;;6258055;28;20021;-68
2020/12/11 15:21:59;;;;;;;33.90;18.63;;;21.40;36.10;;;;;;6257407;28;20539;-66
2020/12/11 15:25:00;;;;;;;41.38;19.55;;;21.70;37.60;;;;;;6241013;28;20025;-67
2020/12/11 15:28:03;;;;;;;47.95;19.35;;;21.70;37.50;;;;;;6240697;28;20029;-66
2020/12/11 15:31:05;;;;;;;38.45;17.88;;;21.70;37.50;;;;;;6247111;28;20317;-71
2020/12/11 15:34:06;;;;;;;35.47;16.65;;;21.70;37.90;;;;;;6240063;28;20097;-66
2020/12/11 15:37:07;;;;;;;29.45;16.38;;;21.80;38.20;;;;;;6239438;28;20030;-67
2020/12/11 15:40:12;;;;;;;28.85;15.35;;;21.80;38.40;;;;;;6240541;28;20520;-68
2020/12/11 15:43:13;;;;;;;35.08;16.15;;;21.70;38.50;;;;;;6254641;28;20033;-66
2020/12/11 15:46:14;;;;;;;39.25;16.50;;;21.80;39.10;;;;;;6270150;28;20487;-68
2020/12/11 15:49:15;;;;;;;32.05;14.65;;;21.70;38.20;;;;;;6263169;28;20029;-67
2020/12/11 15:52:17;;;;;;;31.95;14.82;;;21.70;39.40;;;;;;6245900;28;20022;-68
2020/12/11 15:55:18;;;;;;;26.95;13.43;;;21.70;39.00;;;;;;6248573;28;20060;-67
2020/12/11 15:58:18;;;;;;;27.95;14.52;;;21.70;39.20;;;;;;6248562;28;20033;-66
2020/12/11 16:01:19;;;;;;;26.98;13.60;;;21.70;39.20;;;;;;6246446;28;20029;-67
2020/12/11 16:04:19;;;;;;;21.90;12.23;;;21.80;40.10;;;;;;6247878;28;20053;-65
2020/12/11 16:07:20;;;;;;;30.65;13.65;;;21.70;39.40;;;;;;6249342;28;20014;-67
2020/12/11 16:10:20;;;;;;;34.30;12.50;;;21.70;39.60;;;;;;6254004;28;20396;-67
2020/12/11 16:13:20;;;;;;;28.08;13.63;;;21.70;39.60;;;;;;6254289;28;20033;-69
2020/12/11 16:16:22;;;;;;;27.13;13.48;;;21.70;39.10;;;;;;6243269;28;20033;-68
2020/12/11 16:19:22;;;;;;;44.80;13.98;;;21.70;39.30;;;;;;6253330;28;20029;-68
2020/12/11 16:22:23;;;;;;;28.30;13.27;;;21.70;39.50;;;;;;6247823;28;20067;-69
2020/12/11 16:25:23;;;;;;;32.05;13.43;;;21.80;39.70;;;;;;6260160;28;20128;-67